Time;durP1;ratioP1;P1;durP2;ratioP2;P2;SDS_P1;SDS_P2;PMS_P1;PMS_P2;Temp;Humidity;BMP_temperature;BMP_pressure;BME280_temperature;BME280_humidity;BME280_pressure;Samples;Min_cycle;Max_cycle;Signal;HPM_P1;HPM_P2
2023/03/16 00:02:12;;;;;;;6.78;3.22;;;3.80;99.90;;;;;;5056372;28;20403;-64
2023/03/16 00:04:38;;;;;;;9.45;3.17;;;3.80;99.90;;;;;;5053390;28;20063;-64
2023/03/16 00:07:09;;;;;;;7.97;3.55;;;3.80;99.90;;;;;;5051917;28;20064;-65
2023/03/16 00:09:36;;;;;;;7.95;3.30;;;3.80;99.90;;;;;;5052923;28;20141;-65
2023/03/16 00:12:02;;;;;;;4.93;3.28;;;3.90;99.90;;;;;;5052226;28;20072;-64
2023/03/16 00:14:29;;;;;;;7.43;3.40;;;3.80;99.90;;;;;;5050747;28;20068;-65
2023/03/16 00:16:55;;;;;;;5.40;2.92;;;3.80;99.90;;;;;;5047794;28;20048;-64
2023/03/16 00:19:23;;;;;;;7.80;3.08;;;3.80;99.90;;;;;;5058067;28;20394;-64
2023/03/16 00:21:50;;;;;;;5.50;3.40;;;3.80;99.90;;;;;;5057015;28;20568;-65
2023/03/16 00:24:16;;;;;;;7.57;3.25;;;3.80;99.90;;;;;;5057634;28;20040;-65
2023/03/16 00:26:43;;;;;;;9.15;3.47;;;3.80;99.90;;;;;;5053135;28;20044;-65
2023/03/16 00:29:08;;;;;;;9.23;3.78;;;3.90;99.90;;;;;;5053225;28;20041;-65
2023/03/16 00:31:34;;;;;;;12.68;4.05;;;3.90;99.90;;;;;;5059173;28;20187;-64
2023/03/16 00:34:01;;;;;;;7.38;3.88;;;3.90;99.90;;;;;;5045703;28;20398;-65
2023/03/16 00:36:27;;;;;;;6.32;3.60;;;3.90;99.90;;;;;;5053344;28;20457;-65
2023/03/16 00:38:53;;;;;;;9.40;4.03;;;3.90;99.90;;;;;;5054339;28;20087;-64
2023/03/16 00:41:18;;;;;;;9.20;3.95;;;3.90;99.90;;;;;;5049982;28;20131;-65
2023/03/16 00:43:44;;;;;;;10.23;3.78;;;4.00;99.90;;;;;;5046735;28;20079;-65
2023/03/16 00:46:12;;;;;;;9.80;4.57;;;4.00;99.90;;;;;;5053658;28;20032;-65
2023/03/16 00:48:41;;;;;;;10.80;3.70;;;4.00;99.90;;;;;;5040472;28;20509;-65
2023/03/16 00:51:11;;;;;;;7.72;4.07;;;4.00;99.90;;;;;;5060021;28;20036;-65
2023/03/16 00:53:38;;;;;;;8.57;4.07;;;4.00;99.90;;;;;;5049258;28;20029;-65
2023/03/16 00:56:04;;;;;;;6.78;3.55;;;4.10;99.90;;;;;;5055219;28;20041;-65
2023/03/16 00:58:35;;;;;;;9.13;3.67;;;4.10;99.90;;;;;;5043625;28;20497;-65
2023/03/16 01:01:03;;;;;;;9.55;3.95;;;4.10;99.90;;;;;;5048204;28;20557;-65
2023/03/16 01:03:28;;;;;;;8.25;3.83;;;4.10;99.90;;;;;;5046125;28;20040;-65
2023/03/16 01:05:58;;;;;;;8.88;3.75;;;4.20;99.90;;;;;;5053636;28;20033;-65
2023/03/16 01:08:26;;;;;;;5.50;3.55;;;4.20;99.90;;;;;;5044559;28;20032;-65
2023/03/16 01:10:53;;;;;;;6.78;3.53;;;4.10;99.90;;;;;;5049153;28;20548;-65
2023/03/16 01:13:19;;;;;;;6.43;3.97;;;4.20;99.90;;;;;;5039532;28;20032;-64
2023/03/16 01:15:45;;;;;;;8.68;3.70;;;4.20;99.90;;;;;;5043366;28;20040;-65
2023/03/16 01:18:12;;;;;;;8.90;3.90;;;4.10;99.90;;;;;;5042475;28;20487;-64
2023/03/16 01:20:38;;;;;;;6.45;3.75;;;4.20;99.90;;;;;;5046107;28;20029;-64
2023/03/16 01:23:04;;;;;;;7.97;3.67;;;4.10;99.90;;;;;;5051172;28;20128;-64
2023/03/16 01:25:31;;;;;;;7.45;3.53;;;4.10;99.90;;;;;;5052043;28;20064;-65
2023/03/16 01:27:56;;;;;;;8.60;3.58;;;4.10;99.90;;;;;;5053530;28;20402;-64
2023/03/16 01:30:22;;;;;;;6.13;3.47;;;4.00;99.90;;;;;;5056878;28;20037;-65
2023/03/16 01:32:48;;;;;;;8.20;3.88;;;4.00;99.90;;;;;;5051045;28;20119;-64
2023/03/16 01:35:14;;;;;;;7.50;5.03;;;4.00;99.90;;;;;;5052921;28;20099;-64
2023/03/16 01:37:40;;;;;;;11.07;4.15;;;4.00;99.90;;;;;;5045653;28;20041;-64
2023/03/16 01:40:07;;;;;;;7.40;4.25;;;3.90;99.90;;;;;;5049806;28;20112;-64
2023/03/16 01:42:44;;;;;;;7.60;3.72;;;3.90;99.90;;;;;;5051113;28;20048;-65
2023/03/16 01:45:47;;;;;;;8.02;4.32;;;3.90;99.90;;;;;;5052110;28;20367;-65
2023/03/16 01:48:13;;;;;;;5.90;3.80;;;3.90;99.90;;;;;;5044258;28;20111;-65
2023/03/16 01:50:41;;;;;;;8.02;4.22;;;3.90;99.90;;;;;;5051104;28;20032;-65
2023/03/16 01:53:07;;;;;;;8.77;4.00;;;3.80;99.90;;;;;;5046645;28;20505;-64
2023/03/16 01:55:33;;;;;;;6.72;3.72;;;3.80;99.90;;;;;;5050904;28;20068;-65
2023/03/16 01:57:58;;;;;;;7.63;3.90;;;3.80;99.90;;;;;;5055787;28;20075;-64
2023/03/16 02:00:30;;;;;;;9.43;3.83;;;3.80;99.90;;;;;;5052581;28;20402;-64
2023/03/16 02:02:58;;;;;;;9.18;3.78;;;3.70;99.90;;;;;;5042703;28;20095;-64
2023/03/16 02:05:35;;;;;;;7.90;4.72;;;3.70;99.90;;;;;;5053769;28;20449;-65
2023/03/16 02:08:02;;;;;;;8.27;4.07;;;3.70;99.90;;;;;;5049257;28;20478;-65
2023/03/16 02:10:28;;;;;;;7.53;4.10;;;3.70;99.90;;;;;;5043403;28;20116;-64
2023/03/16 02:12:56;;;;;;;6.68;4.32;;;3.60;99.90;;;;;;5047611;28;20045;-64
2023/03/16 02:15:21;;;;;;;8.48;4.13;;;3.60;99.90;;;;;;5050448;28;20033;-64
2023/03/16 02:17:49;;;;;;;6.32;3.92;;;3.60;99.90;;;;;;5045462;28;20085;-64
2023/03/16 02:20:39;;;;;;;9.25;4.88;;;3.50;99.90;;;;;;5045672;28;20124;-65
2023/03/16 02:23:07;;;;;;;8.05;4.25;;;3.50;99.90;;;;;;5044452;28;20064;-64
2023/03/16 02:25:52;;;;;;;7.78;3.97;;;3.50;99.90;;;;;;5049289;28;20047;-65
2023/03/16 02:28:30;;;;;;;5.93;4.15;;;3.50;99.90;;;;;;5053177;28;20478;-64
2023/03/16 02:30:56;;;;;;;7.25;4.38;;;3.50;99.90;;;;;;5046735;28;20458;-65
2023/03/16 02:33:22;;;;;;;9.18;4.47;;;3.50;99.90;;;;;;5051807;28;20116;-64
2023/03/16 02:35:48;;;;;;;10.20;4.40;;;3.50;99.90;;;;;;5045492;28;20041;-64
2023/03/16 02:38:13;;;;;;;5.78;4.45;;;3.50;99.90;;;;;;5034796;28;20045;-65
2023/03/16 02:40:42;;;;;;;10.80;4.10;;;3.60;99.90;;;;;;5049302;28;20060;-64
2023/03/16 02:43:17;;;;;;;7.25;4.18;;;3.60;99.90;;;;;;5051620;28;20059;-64
2023/03/16 02:45:57;;;;;;;6.07;3.80;;;3.60;99.90;;;;;;5049098;28;20078;-64
2023/03/16 02:48:31;;;;;;;11.45;4.60;;;3.60;99.90;;;;;;5046494;28;20033;-64
2023/03/16 02:50:57;;;;;;;6.72;4.05;;;3.60;99.90;;;;;;5048010;28;20108;-64
2023/03/16 02:53:22;;;;;;;8.60;3.97;;;3.60;99.90;;;;;;5046047;28;20109;-65
2023/03/16 02:55:48;;;;;;;9.82;4.13;;;3.70;99.90;;;;;;5048004;28;20575;-65
2023/03/16 02:58:14;;;;;;;6.90;3.90;;;3.60;99.90;;;;;;5043443;28;20035;-64
2023/03/16 03:00:41;;;;;;;9.48;4.43;;;3.70;99.90;;;;;;5045273;28;20041;-64
2023/03/16 03:03:08;;;;;;;9.45;4.03;;;3.70;99.90;;;;;;5048561;28;20037;-64
2023/03/16 03:05:34;;;;;;;7.70;4.55;;;3.70;99.90;;;;;;5047514;28;20090;-64
2023/03/16 03:08:00;;;;;;;7.53;3.95;;;3.70;99.90;;;;;;5041865;28;20553;-64
2023/03/16 03:10:26;;;;;;;6.50;3.90;;;3.80;99.90;;;;;;5049370;28;20033;-64
2023/03/16 03:12:51;;;;;;;7.88;4.15;;;3.80;99.90;;;;;;5050416;28;20045;-64
2023/03/16 03:15:18;;;;;;;11.27;4.13;;;3.80;99.90;;;;;;5046231;28;20064;-64
2023/03/16 03:17:45;;;;;;;10.10;4.30;;;3.80;99.90;;;;;;5050174;28;20089;-65
2023/03/16 03:20:18;;;;;;;5.60;3.95;;;3.90;99.90;;;;;;5043223;28;20087;-65
2023/03/16 03:22:46;;;;;;;8.93;3.97;;;3.90;99.90;;;;;;5044350;28;20467;-65
2023/03/16 03:25:13;;;;;;;8.07;4.10;;;3.90;99.90;;;;;;5047107;28;20036;-65
2023/03/16 03:27:41;;;;;;;7.30;4.60;;;4.00;99.90;;;;;;5046448;28;20120;-65
2023/03/16 03:30:11;;;;;;;6.68;3.75;;;4.00;99.90;;;;;;5047334;28;20060;-65
2023/03/16 03:32:38;;;;;;;7.53;3.65;;;4.00;99.90;;;;;;5049919;28;20053;-65
2023/03/16 03:35:04;;;;;;;5.45;3.53;;;4.10;99.90;;;;;;5050914;28;20040;-65
2023/03/16 03:37:30;;;;;;;8.00;4.55;;;4.10;99.90;;;;;;5047477;28;20030;-65
2023/03/16 03:39:56;;;;;;;8.60;3.90;;;4.10;99.90;;;;;;5042069;28;20087;-65
2023/03/16 03:42:24;;;;;;;10.27;4.10;;;4.10;99.90;;;;;;5049279;28;20045;-65
2023/03/16 03:44:51;;;;;;;7.15;3.95;;;4.20;99.90;;;;;;5050489;28;20048;-65
2023/03/16 03:47:18;;;;;;;6.95;4.03;;;4.20;99.90;;;;;;5049193;28;20069;-65
2023/03/16 03:49:43;;;;;;;7.70;4.00;;;4.20;99.90;;;;;;5044273;28;20044;-65
2023/03/16 03:52:09;;;;;;;7.82;3.97;;;4.20;99.90;;;;;;5046278;28;20596;-65
2023/03/16 03:54:35;;;;;;;10.13;3.85;;;4.20;99.90;;;;;;5050943;28;20516;-65
2023/03/16 03:57:01;;;;;;;7.25;3.83;;;4.20;99.90;;;;;;5048796;28;20438;-65
2023/03/16 03:59:26;;;;;;;7.40;4.68;;;4.30;99.90;;;;;;5042468;28;20048;-65
2023/03/16 04:01:52;;;;;;;6.93;4.00;;;4.30;99.90;;;;;;5039560;28;20041;-65
2023/03/16 04:04:18;;;;;;;7.25;4.13;;;4.30;99.90;;;;;;5050740;28;20041;-65
2023/03/16 04:06:44;;;;;;;8.13;4.03;;;4.30;99.90;;;;;;5051012;28;20490;-65
2023/03/16 04:09:10;;;;;;;7.95;4.15;;;4.30;99.90;;;;;;5040434;28;20048;-65
2023/03/16 04:11:36;;;;;;;7.22;4.20;;;4.30;99.90;;;;;;5048360;28;20438;-65
2023/03/16 04:14:02;;;;;;;11.45;4.63;;;4.20;99.90;;;;;;5051659;28;20120;-65
2023/03/16 04:16:28;;;;;;;7.93;3.90;;;4.20;99.90;;;;;;5049194;28;20491;-65
2023/03/16 04:18:54;;;;;;;9.68;3.92;;;4.20;99.90;;;;;;5042538;28;20032;-65
2023/03/16 04:21:20;;;;;;;7.63;4.43;;;4.20;99.90;;;;;;5047417;28;20045;-65
2023/03/16 04:23:48;;;;;;;10.05;4.20;;;4.20;99.90;;;;;;5052940;28;20037;-65
2023/03/16 04:26:14;;;;;;;12.13;4.40;;;4.20;99.90;;;;;;5054316;28;20037;-65
2023/03/16 04:28:39;;;;;;;6.30;4.15;;;4.10;99.90;;;;;;5044756;28;20033;-65
2023/03/16 04:31:07;;;;;;;8.80;4.60;;;4.10;99.90;;;;;;5047219;28;20460;-65
2023/03/16 04:33:37;;;;;;;7.72;4.47;;;4.10;99.90;;;;;;5049436;28;20040;-65
2023/03/16 04:36:04;;;;;;;8.25;3.90;;;4.10;99.90;;;;;;5056171;28;20502;-65
2023/03/16 04:38:32;;;;;;;8.38;4.50;;;4.10;99.90;;;;;;5053208;28;20111;-65
2023/03/16 04:40:59;;;;;;;7.88;4.40;;;4.10;99.90;;;;;;5048501;28;20090;-65
2023/03/16 04:43:24;;;;;;;9.80;4.80;;;4.10;99.90;;;;;;5053048;28;20033;-65
2023/03/16 04:45:50;;;;;;;8.32;4.57;;;4.10;99.90;;;;;;5052710;28;20410;-65
2023/03/16 04:48:16;;;;;;;6.57;4.20;;;4.00;99.90;;;;;;5050350;28;20112;-65
2023/03/16 04:50:41;;;;;;;5.70;3.97;;;4.00;99.90;;;;;;5056025;28;20036;-65
2023/03/16 04:53:07;;;;;;;8.00;4.53;;;4.00;99.90;;;;;;5055534;28;20516;-65
2023/03/16 04:55:32;;;;;;;8.82;4.55;;;4.00;99.90;;;;;;5064433;22;20538;-67
2023/03/16 04:57:58;;;;;;;7.57;4.22;;;4.00;99.90;;;;;;5047736;28;20041;-67
2023/03/16 05:00:24;;;;;;;8.32;4.57;;;4.00;99.90;;;;;;5049381;28;20047;-64
2023/03/16 05:02:53;;;;;;;7.05;4.32;;;4.00;99.90;;;;;;5046636;28;20487;-64
2023/03/16 05:05:20;;;;;;;8.07;4.32;;;4.00;99.90;;;;;;5033828;28;20118;-64
2023/03/16 05:07:46;;;;;;;9.20;4.60;;;4.10;99.90;;;;;;5034481;28;20045;-64
2023/03/16 05:10:15;;;;;;;5.90;4.65;;;4.10;99.90;;;;;;5047263;28;20394;-66
2023/03/16 05:12:40;;;;;;;10.95;4.75;;;4.00;99.90;;;;;;5051269;28;20036;-66
2023/03/16 05:15:06;;;;;;;8.38;4.50;;;4.10;99.90;;;;;;5033588;28;20111;-66
2023/03/16 05:17:33;;;;;;;7.50;4.68;;;4.10;99.90;;;;;;5052280;28;20037;-66
2023/03/16 05:19:59;;;;;;;8.82;4.30;;;4.00;99.90;;;;;;5033653;28;20049;-65
2023/03/16 05:22:24;;;;;;;10.40;4.80;;;4.00;99.90;;;;;;5032235;28;20045;-66
2023/03/16 05:24:50;;;;;;;9.35;4.53;;;4.00;99.90;;;;;;5051562;28;20490;-66
2023/03/16 05:27:16;;;;;;;7.68;3.63;;;4.10;99.90;;;;;;5051979;28;20079;-66
2023/03/16 05:29:45;;;;;;;5.15;3.83;;;4.10;99.90;;;;;;5052075;28;20067;-66
2023/03/16 05:32:15;;;;;;;9.35;4.03;;;4.10;99.90;;;;;;5031571;28;20041;-65
2023/03/16 05:34:42;;;;;;;6.28;3.97;;;4.10;99.90;;;;;;5052592;28;20037;-65
2023/03/16 05:37:07;;;;;;;7.03;4.05;;;4.10;99.90;;;;;;5040089;28;20486;-65
2023/03/16 05:39:33;;;;;;;6.00;3.85;;;4.20;99.90;;;;;;5048826;28;20059;-65
2023/03/16 05:41:59;;;;;;;7.78;4.18;;;4.20;99.90;;;;;;5046300;28;20496;-65
2023/03/16 05:44:24;;;;;;;7.63;4.28;;;4.20;99.90;;;;;;5049830;28;20079;-66
2023/03/16 05:46:50;;;;;;;5.30;3.60;;;4.20;99.90;;;;;;5031671;28;20037;-66
2023/03/16 05:49:16;;;;;;;6.28;3.78;;;4.20;99.90;;;;;;5050262;28;20036;-66
2023/03/16 05:51:42;;;;;;;5.80;3.83;;;4.20;99.90;;;;;;5039655;28;20037;-65
2023/03/16 05:54:07;;;;;;;5.28;3.80;;;4.30;99.90;;;;;;5037793;28;20095;-65
2023/03/16 05:56:33;;;;;;;6.53;3.75;;;4.30;99.90;;;;;;5030113;28;20052;-65
2023/03/16 05:58:59;;;;;;;5.13;3.22;;;4.30;99.90;;;;;;5049367;28;20086;-65
2023/03/16 06:01:25;;;;;;;5.15;3.63;;;4.40;99.90;;;;;;5052040;28;20108;-65
2023/03/16 06:03:51;;;;;;;6.93;3.75;;;4.40;99.90;;;;;;5045044;28;20041;-65
2023/03/16 06:06:18;;;;;;;8.05;3.80;;;4.40;99.90;;;;;;5046751;28;20041;-65
2023/03/16 06:08:43;;;;;;;3.95;3.42;;;4.50;99.90;;;;;;5043303;28;20048;-65
2023/03/16 06:11:10;;;;;;;6.15;3.95;;;4.50;99.90;;;;;;5049462;28;20558;-65
2023/03/16 06:13:37;;;;;;;5.90;3.85;;;4.50;99.90;;;;;;5046389;28;20125;-65
2023/03/16 06:16:02;;;;;;;4.88;3.90;;;4.50;99.90;;;;;;5051277;28;20040;-66
2023/03/16 06:18:28;;;;;;;5.95;3.53;;;4.50;99.90;;;;;;5051210;28;20033;-65
2023/03/16 06:20:54;;;;;;;6.10;3.58;;;4.50;99.90;;;;;;5050717;28;20110;-65
2023/03/16 06:23:20;;;;;;;7.43;3.78;;;4.50;99.90;;;;;;5040992;28;21012;-66
2023/03/16 06:25:49;;;;;;;6.80;3.75;;;4.50;99.90;;;;;;5048687;28;20055;-66
2023/03/16 06:28:15;;;;;;;8.32;4.25;;;4.50;99.90;;;;;;5050974;28;20033;-66
2023/03/16 06:30:41;;;;;;;8.88;3.75;;;4.50;99.90;;;;;;5051055;28;20504;-65
2023/03/16 06:33:07;;;;;;;5.85;3.75;;;4.50;99.90;;;;;;5044394;28;20043;-66
2023/03/16 06:35:33;;;;;;;7.95;3.97;;;4.50;99.90;;;;;;5045537;28;20045;-66
2023/03/16 06:37:59;;;;;;;4.60;3.97;;;4.60;99.90;;;;;;5051967;28;20112;-65
2023/03/16 06:40:24;;;;;;;8.10;3.90;;;4.60;99.90;;;;;;5049888;28;20044;-65
2023/03/16 06:42:50;;;;;;;9.93;4.03;;;4.60;99.90;;;;;;5031302;28;20048;-65
2023/03/16 06:45:16;;;;;;;6.03;3.28;;;4.60;99.90;;;;;;5050055;28;20040;-65
2023/03/16 06:47:43;;;;;;;6.85;3.35;;;4.60;99.90;;;;;;5046669;28;20402;-66
2023/03/16 06:50:10;;;;;;;7.00;3.50;;;4.60;99.90;;;;;;5051539;28;20632;-65
2023/03/16 06:52:36;;;;;;;5.68;3.05;;;4.70;99.90;;;;;;5051249;28;20170;-65
2023/03/16 06:55:01;;;;;;;6.22;3.38;;;4.70;99.90;;;;;;5051055;28;20128;-65
2023/03/16 06:57:27;;;;;;;5.82;3.78;;;4.70;99.90;;;;;;5050638;28;20040;-65
2023/03/16 06:59:52;;;;;;;5.35;3.25;;;4.80;99.90;;;;;;5033780;28;20041;-65
2023/03/16 07:02:18;;;;;;;8.27;4.00;;;4.80;99.90;;;;;;5049440;28;20088;-66
2023/03/16 07:04:44;;;;;;;5.75;3.47;;;4.80;99.90;;;;;;5051633;28;20049;-65
2023/03/16 07:07:10;;;;;;;6.10;3.75;;;4.80;99.90;;;;;;5051702;28;20064;-65
2023/03/16 07:09:36;;;;;;;5.15;3.17;;;4.90;99.90;;;;;;5051203;28;20552;-66
2023/03/16 07:12:03;;;;;;;5.53;3.80;;;4.90;99.90;;;;;;5047260;28;20068;-65
2023/03/16 07:14:28;;;;;;;5.20;3.97;;;4.90;99.90;;;;;;5049690;28;20040;-65
2023/03/16 07:16:54;;;;;;;5.70;3.35;;;4.90;99.90;;;;;;5040094;28;20037;-65
2023/03/16 07:19:21;;;;;;;8.13;3.97;;;4.90;99.90;;;;;;5050992;28;20032;-65
2023/03/16 07:21:47;;;;;;;5.75;3.67;;;4.90;99.90;;;;;;5041597;28;20048;-65
2023/03/16 07:24:13;;;;;;;5.65;3.33;;;4.90;99.90;;;;;;5046126;28;20037;-65
2023/03/16 07:26:38;;;;;;;6.60;3.88;;;4.90;99.90;;;;;;5046520;28;20040;-65
2023/03/16 07:29:05;;;;;;;7.28;3.63;;;4.90;99.90;;;;;;5047788;28;20045;-65
2023/03/16 07:31:31;;;;;;;6.38;3.97;;;5.00;99.90;;;;;;5046764;28;20073;-65
2023/03/16 07:33:57;;;;;;;7.70;3.92;;;5.00;99.90;;;;;;5046069;28;20102;-65
2023/03/16 07:36:23;;;;;;;7.45;3.45;;;5.00;99.90;;;;;;5019315;28;20087;-65
2023/03/16 07:38:50;;;;;;;5.93;3.85;;;5.00;99.90;;;;;;5052408;28;20053;-65
2023/03/16 07:41:16;;;;;;;5.95;3.70;;;5.10;99.90;;;;;;5050118;28;20041;-64
2023/03/16 07:43:43;;;;;;;5.13;3.67;;;5.10;99.90;;;;;;5045571;28;20395;-65
2023/03/16 07:46:12;;;;;;;8.63;4.03;;;5.10;99.90;;;;;;5028995;28;20120;-65
2023/03/16 07:48:42;;;;;;;6.93;3.83;;;5.20;99.90;;;;;;5042627;28;20041;-65
2023/03/16 07:51:09;;;;;;;8.77;4.10;;;5.20;99.90;;;;;;5046377;28;20041;-65
2023/03/16 07:53:34;;;;;;;7.05;3.92;;;5.20;99.90;;;;;;5045566;28;20083;-66
2023/03/16 07:56:00;;;;;;;7.57;3.97;;;5.20;99.90;;;;;;5043490;28;20045;-65
2023/03/16 07:58:26;;;;;;;7.55;3.78;;;5.20;99.90;;;;;;5050819;28;20053;-66
2023/03/16 08:00:59;;;;;;;6.13;3.80;;;5.30;99.90;;;;;;5032759;28;20037;-66
2023/03/16 08:03:25;;;;;;;6.47;4.10;;;5.30;99.90;;;;;;5048108;28;20040;-66
2023/03/16 08:05:52;;;;;;;9.93;4.60;;;5.30;99.90;;;;;;5051388;28;20041;-66
2023/03/16 08:08:18;;;;;;;7.50;3.92;;;5.30;99.90;;;;;;5050743;28;20036;-65
2023/03/16 08:10:47;;;;;;;4.40;3.33;;;5.40;99.90;;;;;;5053151;28;20041;-65
2023/03/16 08:13:13;;;;;;;5.57;3.70;;;5.40;99.90;;;;;;5051307;28;20033;-66
2023/03/16 08:15:38;;;;;;;7.43;3.70;;;5.40;99.90;;;;;;5054251;28;20044;-65
2023/03/16 08:18:06;;;;;;;7.43;3.72;;;5.50;99.90;;;;;;5054516;28;20037;-66
2023/03/16 08:20:32;;;;;;;5.97;3.92;;;5.50;99.90;;;;;;5027711;28;20138;-65
2023/03/16 08:22:58;;;;;;;5.65;4.25;;;5.50;99.90;;;;;;5045620;28;20367;-66
2023/03/16 08:25:23;;;;;;;5.32;3.78;;;5.50;99.90;;;;;;5047417;28;20154;-65
2023/03/16 08:27:49;;;;;;;6.78;3.70;;;5.60;99.90;;;;;;5047153;28;20127;-65
2023/03/16 08:30:15;;;;;;;6.38;3.88;;;5.60;99.90;;;;;;5052120;28;20037;-65
2023/03/16 08:32:41;;;;;;;5.75;3.95;;;5.60;99.90;;;;;;5053111;28;20036;-65
2023/03/16 08:35:09;;;;;;;8.50;4.40;;;5.60;99.90;;;;;;5049611;28;20099;-65
2023/03/16 08:37:35;;;;;;;5.60;3.58;;;5.60;99.90;;;;;;5048462;28;20119;-66
2023/03/16 08:40:01;;;;;;;6.90;4.22;;;5.50;99.90;;;;;;5048844;28;20530;-66
2023/03/16 08:42:27;;;;;;;7.35;4.50;;;5.60;99.90;;;;;;5035739;28;20044;-66
2023/03/16 08:44:54;;;;;;;10.32;4.75;;;5.50;99.90;;;;;;5052449;28;20044;-66
2023/03/16 08:47:23;;;;;;;9.98;4.47;;;5.50;99.90;;;;;;5053016;28;20520;-64
2023/03/16 08:49:49;;;;;;;6.53;4.32;;;5.50;99.90;;;;;;5050939;28;20032;-64
2023/03/16 08:52:15;;;;;;;6.53;4.40;;;5.50;99.90;;;;;;5027408;28;20041;-64
2023/03/16 08:54:42;;;;;;;8.68;5.00;;;5.50;99.90;;;;;;5052421;28;20063;-64
2023/03/16 08:57:09;;;;;;;7.03;4.80;;;5.50;99.90;;;;;;5052608;28;20037;-64
2023/03/16 08:59:35;;;;;;;7.85;4.90;;;5.40;99.90;;;;;;5051703;28;20029;-64
2023/03/16 09:02:02;;;;;;;8.30;4.50;;;5.50;99.90;;;;;;5045953;28;20491;-64
2023/03/16 09:04:28;;;;;;;6.88;4.30;;;5.40;99.90;;;;;;5049352;28;20041;-64
2023/03/16 09:06:54;;;;;;;9.55;4.80;;;5.50;99.90;;;;;;5035095;28;20076;-64
2023/03/16 09:09:20;;;;;;;10.52;4.90;;;5.50;99.90;;;;;;5042392;28;20472;-63
2023/03/16 09:11:46;;;;;;;8.77;5.18;;;5.50;99.90;;;;;;5042993;28;20043;-64
2023/03/16 09:14:13;;;;;;;7.28;4.65;;;5.50;99.90;;;;;;5045230;28;20557;-64
2023/03/16 09:16:38;;;;;;;8.50;5.28;;;5.50;99.90;;;;;;5047965;28;20094;-65
2023/03/16 09:19:04;;;;;;;8.63;4.20;;;5.50;99.90;;;;;;5050851;28;20044;-65
2023/03/16 09:21:30;;;;;;;8.88;4.80;;;5.50;99.90;;;;;;5050291;28;20485;-65
2023/03/16 09:23:56;;;;;;;8.95;4.65;;;5.60;99.90;;;;;;5051219;28;20121;-64
2023/03/16 09:26:22;;;;;;;9.43;5.70;;;5.60;99.90;;;;;;5032746;28;20547;-64
2023/03/16 09:28:48;;;;;;;9.25;4.85;;;5.60;99.90;;;;;;5033376;28;20039;-65
2023/03/16 09:31:18;;;;;;;7.15;4.15;;;5.60;99.90;;;;;;5047385;28;20494;-65
2023/03/16 09:33:45;;;;;;;12.30;5.63;;;5.60;99.90;;;;;;5051923;28;20044;-64
2023/03/16 09:36:12;;;;;;;8.52;5.03;;;5.70;99.90;;;;;;5050285;28;20037;-64
2023/03/16 09:38:38;;;;;;;7.97;4.55;;;5.70;99.90;;;;;;5052144;28;20037;-64
2023/03/16 09:41:38;;;;;;;10.35;5.07;;;5.70;99.90;;;;;;5047193;28;20091;-64
2023/03/16 09:44:28;;;;;;;9.52;4.75;;;5.80;99.90;;;;;;5047602;28;20044;-64
2023/03/16 09:46:55;;;;;;;7.95;4.70;;;5.80;99.90;;;;;;5044602;28;20525;-64
2023/03/16 09:49:26;;;;;;;8.30;3.95;;;5.80;99.90;;;;;;5045898;28;20045;-64
2023/03/16 09:52:10;;;;;;;7.43;4.53;;;5.80;99.90;;;;;;5052407;28;20159;-64
2023/03/16 09:54:57;;;;;;;10.10;5.35;;;5.90;99.90;;;;;;5034286;28;20041;-63
2023/03/16 09:57:34;;;;;;;9.95;5.05;;;5.90;99.90;;;;;;5051775;28;20102;-63
2023/03/16 10:00:15;;;;;;;8.10;4.35;;;6.00;99.90;;;;;;5047158;28;20037;-64
2023/03/16 10:03:20;;;;;;;7.55;5.07;;;6.00;99.90;;;;;;5033911;28;20060;-64
2023/03/16 10:06:01;;;;;;;9.15;5.43;;;6.00;99.90;;;;;;5047195;28;20125;-63
2023/03/16 10:08:42;;;;;;;9.15;4.38;;;6.00;99.90;;;;;;5049501;28;20490;-63
2023/03/16 10:11:28;;;;;;;11.15;5.38;;;6.00;99.90;;;;;;5051438;28;20468;-63
2023/03/16 10:13:55;;;;;;;8.23;5.22;;;6.00;99.90;;;;;;5050401;28;20402;-63
2023/03/16 10:16:39;;;;;;;9.77;4.50;;;6.10;99.90;;;;;;5049557;28;20036;-63
2023/03/16 10:19:32;;;;;;;9.45;4.18;;;6.10;99.90;;;;;;5045792;28;20076;-64
2023/03/16 10:22:01;;;;;;;7.10;4.72;;;6.10;99.90;;;;;;5051167;28;20052;-65
2023/03/16 10:24:40;;;;;;;6.65;4.03;;;6.10;99.90;;;;;;5052124;28;20488;-65
2023/03/16 10:27:13;;;;;;;7.15;4.47;;;6.10;99.90;;;;;;5050814;28;20037;-65
2023/03/16 10:29:40;;;;;;;9.68;4.75;;;6.10;99.90;;;;;;5047781;28;20033;-64
2023/03/16 10:32:15;;;;;;;10.15;4.80;;;6.10;99.90;;;;;;5047787;28;20052;-65
2023/03/16 10:34:44;;;;;;;10.45;5.07;;;6.10;99.90;;;;;;5028412;28;20048;-65
2023/03/16 10:37:12;;;;;;;8.13;4.93;;;6.20;99.90;;;;;;5048034;28;20052;-64
2023/03/16 10:39:41;;;;;;;9.23;5.38;;;6.20;99.90;;;;;;5049688;28;20040;-65
2023/03/16 10:42:16;;;;;;;8.32;4.38;;;6.30;99.90;;;;;;5042545;28;20418;-65
2023/03/16 10:44:42;;;;;;;12.18;5.55;;;6.30;99.90;;;;;;5047195;28;20033;-65
2023/03/16 10:47:17;;;;;;;8.27;4.70;;;6.30;99.90;;;;;;5043645;28;20037;-65
2023/03/16 10:49:47;;;;;;;7.57;4.55;;;6.40;99.90;;;;;;5042358;28;20384;-65
2023/03/16 10:52:29;;;;;;;10.45;5.00;;;6.40;99.90;;;;;;5042650;28;20124;-65
2023/03/16 10:55:18;;;;;;;8.23;4.57;;;6.40;99.90;;;;;;5063879;22;20032;-62
2023/03/16 10:57:53;;;;;;;6.15;3.83;;;6.40;99.90;;;;;;5039498;28;20053;-63
2023/03/16 11:00:29;;;;;;;9.23;4.93;;;6.50;99.90;;;;;;5029840;28;20111;-62
2023/03/16 11:02:58;;;;;;;7.68;4.63;;;6.50;99.90;;;;;;5047817;28;20033;-63
2023/03/16 11:05:32;;;;;;;7.95;4.57;;;6.50;99.90;;;;;;5051132;28;20529;-63
2023/03/16 11:07:59;;;;;;;8.10;4.47;;;6.60;99.90;;;;;;5050526;28;20401;-62
2023/03/16 11:10:34;;;;;;;12.68;5.28;;;6.60;99.90;;;;;;5044451;28;20064;-62
2023/03/16 11:13:16;;;;;;;6.47;3.53;;;6.60;99.90;;;;;;5047524;28;20672;-63
2023/03/16 11:16:18;;;;;;;8.95;4.38;;;6.60;99.90;;;;;;5044252;28;20033;-63
2023/03/16 11:18:53;;;;;;;7.82;4.75;;;6.60;99.90;;;;;;5047698;28;20056;-63
2023/03/16 11:21:40;;;;;;;6.55;4.18;;;6.60;99.90;;;;;;5045425;28;20044;-64
2023/03/16 11:24:15;;;;;;;8.00;4.47;;;6.60;99.90;;;;;;5046916;28;20061;-63
2023/03/16 11:26:44;;;;;;;7.65;4.30;;;6.60;99.90;;;;;;5047767;28;20039;-64
2023/03/16 11:29:22;;;;;;;6.43;4.20;;;6.70;99.90;;;;;;5008909;28;20037;-64
2023/03/16 11:31:56;;;;;;;8.23;4.10;;;6.70;99.90;;;;;;5052698;28;20047;-63
2023/03/16 11:34:29;;;;;;;7.03;4.05;;;6.80;99.90;;;;;;5047061;28;20041;-63
2023/03/16 11:37:18;;;;;;;6.80;4.03;;;6.90;99.90;;;;;;5050266;28;20036;-63
2023/03/16 11:39:49;;;;;;;9.38;4.25;;;6.90;99.90;;;;;;5051284;28;20044;-63
2023/03/16 11:42:17;;;;;;;7.28;4.13;;;6.90;99.90;;;;;;5054797;28;20037;-63
2023/03/16 11:45:17;;;;;;;6.82;4.00;;;7.00;99.90;;;;;;5048164;28;20045;-63
2023/03/16 11:47:54;;;;;;;7.32;4.13;;;7.00;99.90;;;;;;5055260;28;20048;-62
2023/03/16 11:50:38;;;;;;;6.55;4.07;;;7.10;99.90;;;;;;5049382;28;20419;-63
2023/03/16 11:53:31;;;;;;;8.20;4.20;;;7.10;99.90;;;;;;5054772;28;20045;-63
2023/03/16 11:56:00;;;;;;;6.07;3.95;;;7.20;99.90;;;;;;5053396;28;20441;-63
2023/03/16 11:58:34;;;;;;;7.70;3.33;;;7.20;99.90;;;;;;5050727;28;20112;-63
2023/03/16 12:01:23;;;;;;;8.82;4.10;;;7.30;99.90;;;;;;5052638;28;20080;-63
2023/03/16 12:04:26;;;;;;;7.80;4.15;;;7.30;99.90;;;;;;5039020;28;20037;-63
2023/03/16 12:07:19;;;;;;;7.03;4.00;;;7.30;99.90;;;;;;5049566;28;20052;-63
2023/03/16 12:10:10;;;;;;;5.72;3.97;;;7.40;99.90;;;;;;5053044;28;20048;-63
2023/03/16 12:12:54;;;;;;;7.95;4.20;;;7.60;99.90;;;;;;5034314;28;20121;-63
2023/03/16 12:15:43;;;;;;;6.65;3.45;;;7.70;99.90;;;;;;5049678;28;20495;-63
2023/03/16 12:18:20;;;;;;;5.30;3.85;;;7.80;99.90;;;;;;5052536;28;20036;-63
2023/03/16 12:21:04;;;;;;;4.85;3.40;;;7.90;99.90;;;;;;5053582;28;20542;-63
2023/03/16 12:23:39;;;;;;;6.88;3.80;;;8.00;99.90;;;;;;5054791;28;20041;-63
2023/03/16 12:26:05;;;;;;;6.75;3.70;;;8.10;99.90;;;;;;5054549;28;20048;-62
2023/03/16 12:28:32;;;;;;;6.75;3.17;;;8.20;99.90;;;;;;5053836;28;20033;-63
2023/03/16 12:31:04;;;;;;;5.47;3.10;;;8.20;99.90;;;;;;5053293;28;20116;-63
2023/03/16 12:33:48;;;;;;;6.85;3.53;;;8.30;99.90;;;;;;5050666;28;20541;-63
2023/03/16 12:36:51;;;;;;;6.00;3.47;;;8.40;99.90;;;;;;5054254;28;20124;-63
2023/03/16 12:40:06;;;;;;;7.50;3.67;;;8.50;99.90;;;;;;5054683;28;20048;-63
2023/03/16 12:42:51;;;;;;;7.13;3.75;;;8.40;99.90;;;;;;5043270;28;20043;-63
2023/03/16 12:45:34;;;;;;;6.72;4.10;;;8.40;99.90;;;;;;5052817;28;20568;-63
2023/03/16 12:48:04;;;;;;;5.93;3.35;;;8.50;99.90;;;;;;5049765;28;20059;-63
2023/03/16 12:50:31;;;;;;;6.30;4.00;;;8.50;99.90;;;;;;5050561;28;20056;-63
2023/03/16 12:52:57;;;;;;;7.07;3.78;;;8.40;99.90;;;;;;5046110;28;20048;-63
2023/03/16 12:55:26;;;;;;;8.13;4.03;;;8.40;99.90;;;;;;5052422;28;20037;-63
2023/03/16 12:57:59;;;;;;;7.38;4.38;;;8.50;99.90;;;;;;5036169;28;20049;-63
2023/03/16 13:00:37;;;;;;;5.38;3.70;;;8.40;99.90;;;;;;5051364;28;20041;-63
2023/03/16 13:03:05;;;;;;;7.55;3.65;;;8.40;99.90;;;;;;5050871;28;20041;-63
2023/03/16 13:05:35;;;;;;;7.78;3.35;;;8.40;99.90;;;;;;5053030;28;20048;-62
2023/03/16 13:08:17;;;;;;;7.45;3.45;;;8.50;99.90;;;;;;5051719;28;20041;-63
2023/03/16 13:11:06;;;;;;;6.80;3.58;;;8.50;99.90;;;;;;5051082;28;20037;-63